Airports Ireland Cork Airport

Cork Airport (EICK / ORK)

Facts about Cork Airport

Name Cork Airport
City Cork
Country Ireland
ICAO code EICK
IATA code ORK
Elevation 153.0096 meters (502 feet)

Weather

METAR

Metar data retrieved Friday, 19 July 2024 at 22:55 UTC (27 minutes ago)

EICK 192230Z 17008KT 9999 FEW003 BKN005 15/14 Q1009 NOSIG

Live traffic

Navigraph Charts (account required)